Time;durP1;ratioP1;P1;durP2;ratioP2;P2;SDS_P1;SDS_P2;PMS_P1;PMS_P2;Temp;Humidity;BMP_temperature;BMP_pressure;BME280_temperature;BME280_humidity;BME280_pressure;Samples;Min_cycle;Max_cycle;Signal;HPM_P1;HPM_P2
2023/05/16 00:01:00;;;;;;;7.63;2.20;;;11.00;83.00;;;;;;5056721;28;20020;-69
2023/05/16 00:03:25;;;;;;;7.90;2.08;;;11.10;83.00;;;;;;5059241;28;20025;-69
2023/05/16 00:05:52;;;;;;;9.82;2.40;;;11.00;83.00;;;;;;5068025;28;20584;-71
2023/05/16 00:08:17;;;;;;;7.68;2.55;;;11.00;82.90;;;;;;5060119;28;20153;-71
2023/05/16 00:10:43;;;;;;;8.02;2.10;;;11.00;83.10;;;;;;5061492;28;20029;-72
2023/05/16 00:13:08;;;;;;;8.07;2.30;;;11.00;83.10;;;;;;5064126;28;20165;-68
2023/05/16 00:15:34;;;;;;;8.60;2.08;;;11.00;83.00;;;;;;5067361;28;20025;-70
2023/05/16 00:18:00;;;;;;;8.93;2.15;;;11.00;82.90;;;;;;5067977;28;20021;-71
2023/05/16 00:20:27;;;;;;;11.85;2.53;;;11.00;83.40;;;;;;5074926;28;20016;-69
2023/05/16 00:22:53;;;;;;;7.35;2.38;;;11.00;82.50;;;;;;5073301;28;20033;-69
2023/05/16 00:25:18;;;;;;;8.38;2.22;;;11.00;82.50;;;;;;5068241;28;20040;-70
2023/05/16 00:27:45;;;;;;;7.60;2.38;;;11.00;82.40;;;;;;5068497;28;20063;-69
2023/05/16 00:30:11;;;;;;;7.50;2.17;;;10.90;82.40;;;;;;5059842;28;20561;-68
2023/05/16 00:32:38;;;;;;;7.03;2.25;;;10.90;82.40;;;;;;5070615;28;20028;-68
2023/05/16 00:35:04;;;;;;;10.25;2.20;;;10.90;82.40;;;;;;5063534;28;20031;-68
2023/05/16 00:37:29;;;;;;;12.02;2.67;;;10.80;82.50;;;;;;5076612;28;20048;-69
2023/05/16 00:39:55;;;;;;;7.43;2.05;;;10.70;82.50;;;;;;5069306;28;20697;-69
2023/05/16 00:42:20;;;;;;;12.45;2.75;;;10.70;82.60;;;;;;5073552;28;20032;-68
2023/05/16 00:44:49;;;;;;;7.82;2.28;;;10.70;82.60;;;;;;5074018;28;20075;-70
2023/05/16 00:47:14;;;;;;;10.30;2.45;;;10.60;82.80;;;;;;5069843;28;21684;-69
2023/05/16 00:49:40;;;;;;;7.50;2.10;;;10.60;82.70;;;;;;5070349;28;20036;-72
2023/05/16 00:52:06;;;;;;;9.75;2.35;;;10.60;82.90;;;;;;5081401;28;20031;-72
2023/05/16 00:54:33;;;;;;;10.88;2.47;;;10.60;82.70;;;;;;5079748;28;20028;-69
2023/05/16 00:56:58;;;;;;;8.98;2.10;;;10.50;82.70;;;;;;5071671;28;20483;-71
2023/05/16 00:59:24;;;;;;;9.23;2.22;;;10.50;82.80;;;;;;5068093;28;20031;-71
2023/05/16 01:01:51;;;;;;;10.07;2.15;;;10.40;82.80;;;;;;5072148;28;20016;-69
2023/05/16 01:04:17;;;;;;;6.40;1.98;;;10.40;82.80;;;;;;5083045;28;20040;-71
2023/05/16 01:06:44;;;;;;;13.07;2.00;;;10.40;82.70;;;;;;5072642;28;20021;-68
2023/05/16 01:09:11;;;;;;;7.47;1.77;;;10.40;82.70;;;;;;5077077;28;20032;-72
2023/05/16 01:11:55;;;;;;;6.30;1.92;;;10.30;82.60;;;;;;5070901;28;20020;-69
2023/05/16 01:14:21;;;;;;;9.60;2.00;;;10.30;82.50;;;;;;5086334;28;20056;-70
2023/05/16 01:17:07;;;;;;;8.93;2.05;;;10.30;82.50;;;;;;5071868;28;20044;-72
2023/05/16 01:20:00;;;;;;;6.72;1.70;;;10.30;82.50;;;;;;5068052;28;20017;-68
2023/05/16 01:22:44;;;;;;;8.32;1.85;;;10.30;82.50;;;;;;5073639;28;20035;-68
2023/05/16 01:25:28;;;;;;;8.15;2.08;;;10.20;82.50;;;;;;5070903;28;20027;-68
2023/05/16 01:27:56;;;;;;;8.85;2.03;;;10.20;82.60;;;;;;5069904;28;20081;-68
2023/05/16 01:30:21;;;;;;;8.05;1.80;;;10.10;82.50;;;;;;5073151;28;20012;-70
2023/05/16 01:32:51;;;;;;;9.63;2.05;;;10.10;82.50;;;;;;5072806;28;20028;-68
2023/05/16 01:35:17;;;;;;;6.32;1.90;;;10.00;82.70;;;;;;5066782;28;20107;-68
2023/05/16 01:38:25;;;;;;;11.23;2.38;;;10.00;82.60;;;;;;5071636;28;20376;-68
2023/05/16 01:41:20;;;;;;;7.45;1.65;;;10.00;82.70;;;;;;4997512;28;20092;-69
2023/05/16 01:43:50;;;;;;;7.93;2.00;;;10.00;82.70;;;;;;5066951;28;20044;-68
2023/05/16 01:46:29;;;;;;;7.13;1.63;;;10.00;82.70;;;;;;5066238;28;20027;-67
2023/05/16 01:49:06;;;;;;;9.02;2.00;;;9.90;82.70;;;;;;5074548;28;20040;-68
2023/05/16 01:51:34;;;;;;;6.82;1.65;;;9.90;82.60;;;;;;5066726;28;20618;-70
2023/05/16 01:54:08;;;;;;;8.80;2.13;;;9.90;82.60;;;;;;5069957;28;20165;-67
2023/05/16 01:56:36;;;;;;;8.20;1.80;;;9.90;82.60;;;;;;5069984;28;20025;-68
2023/05/16 01:59:03;;;;;;;7.13;1.75;;;9.90;82.60;;;;;;5069992;28;20118;-68
2023/05/16 02:01:30;;;;;;;6.20;1.73;;;9.90;82.60;;;;;;5070033;28;20078;-69
2023/05/16 02:03:56;;;;;;;7.78;1.85;;;9.90;82.60;;;;;;5068319;28;20024;-67
2023/05/16 02:06:23;;;;;;;4.70;2.05;;;9.90;82.50;;;;;;5076576;28;20048;-68
2023/05/16 02:08:48;;;;;;;6.93;2.00;;;9.90;82.40;;;;;;5067875;28;20028;-67
2023/05/16 02:11:14;;;;;;;8.00;1.80;;;9.80;82.40;;;;;;5068646;28;20532;-68
2023/05/16 02:13:39;;;;;;;6.53;1.80;;;9.80;82.30;;;;;;5070709;28;20032;-69
2023/05/16 02:16:05;;;;;;;8.48;1.98;;;9.70;82.30;;;;;;5069796;28;20103;-70
2023/05/16 02:18:31;;;;;;;7.88;1.67;;;9.70;82.30;;;;;;5069395;28;20016;-71
2023/05/16 02:20:56;;;;;;;7.40;1.67;;;9.70;82.90;;;;;;5066888;28;20028;-70
2023/05/16 02:23:22;;;;;;;6.10;1.83;;;9.70;82.30;;;;;;5075319;28;20039;-68
2023/05/16 02:25:47;;;;;;;5.90;1.60;;;9.70;82.20;;;;;;5068037;28;20028;-69
2023/05/16 02:28:13;;;;;;;7.57;1.73;;;9.70;82.10;;;;;;5071022;28;20132;-69
2023/05/16 02:30:39;;;;;;;10.00;1.85;;;9.70;82.10;;;;;;5070498;28;20036;-68
2023/05/16 02:33:04;;;;;;;5.85;1.60;;;9.60;82.10;;;;;;5069216;28;20188;-68
2023/05/16 02:35:30;;;;;;;6.50;1.67;;;9.70;82.20;;;;;;5070220;28;20032;-68
2023/05/16 02:37:56;;;;;;;10.25;1.73;;;9.70;82.20;;;;;;5070524;28;20032;-68
2023/05/16 02:40:22;;;;;;;6.82;1.75;;;9.70;82.20;;;;;;5074997;28;20020;-68
2023/05/16 02:42:47;;;;;;;6.43;1.70;;;9.60;82.10;;;;;;5072609;28;20403;-67
2023/05/16 02:45:13;;;;;;;6.90;1.52;;;9.60;82.10;;;;;;5070531;28;20479;-69
2023/05/16 02:47:38;;;;;;;8.85;1.70;;;9.60;82.20;;;;;;5069432;28;20027;-67
2023/05/16 02:50:04;;;;;;;6.22;1.55;;;9.60;82.10;;;;;;5069779;28;20028;-68
2023/05/16 02:52:30;;;;;;;7.47;1.83;;;9.50;82.10;;;;;;5070237;28;20024;-68
2023/05/16 02:54:56;;;;;;;7.82;1.70;;;9.50;82.20;;;;;;5082263;28;20034;-67
2023/05/16 02:57:21;;;;;;;8.27;1.92;;;9.50;82.30;;;;;;5069854;28;20024;-66
2023/05/16 02:59:47;;;;;;;6.25;1.45;;;9.50;82.40;;;;;;5083732;28;20020;-67
2023/05/16 03:02:13;;;;;;;6.95;1.73;;;9.50;82.40;;;;;;5070165;28;20025;-67
2023/05/16 03:04:38;;;;;;;6.32;1.73;;;9.50;82.40;;;;;;5067885;28;20021;-68
2023/05/16 03:07:04;;;;;;;6.28;1.80;;;9.40;82.40;;;;;;5068130;28;20035;-68
2023/05/16 03:09:29;;;;;;;7.40;1.80;;;9.40;82.50;;;;;;5075678;28;20043;-66
2023/05/16 03:11:55;;;;;;;7.50;1.98;;;9.40;82.50;;;;;;5076007;28;20032;-66
2023/05/16 03:14:20;;;;;;;6.82;1.80;;;9.40;82.50;;;;;;5075475;28;20035;-68
2023/05/16 03:16:46;;;;;;;5.63;1.60;;;9.40;82.50;;;;;;5064247;28;20025;-69
2023/05/16 03:19:12;;;;;;;5.93;1.58;;;9.40;82.60;;;;;;5072536;28;20031;-67
2023/05/16 03:21:38;;;;;;;8.13;1.83;;;9.40;82.60;;;;;;5071091;28;20021;-68
2023/05/16 03:24:04;;;;;;;6.80;1.80;;;9.40;82.70;;;;;;5069930;28;20039;-66
2023/05/16 03:26:30;;;;;;;4.97;1.40;;;9.40;82.70;;;;;;5079539;28;20028;-67
2023/05/16 03:28:55;;;;;;;7.72;1.75;;;9.40;82.70;;;;;;5076146;28;20024;-67
2023/05/16 03:31:21;;;;;;;5.18;1.95;;;9.40;82.80;;;;;;5073062;28;20109;-70
2023/05/16 03:33:46;;;;;;;5.32;1.40;;;9.40;82.70;;;;;;5072894;28;20028;-69
2023/05/16 03:36:12;;;;;;;7.18;1.50;;;9.40;82.70;;;;;;5060821;28;20083;-67
2023/05/16 03:38:38;;;;;;;6.40;1.45;;;9.40;82.60;;;;;;5074043;28;20441;-67
2023/05/16 03:41:03;;;;;;;10.45;2.10;;;9.40;83.20;;;;;;5075489;28;20095;-67
2023/05/16 03:43:29;;;;;;;6.40;1.90;;;9.40;82.50;;;;;;5069343;28;20032;-69
2023/05/16 03:45:55;;;;;;;8.70;1.90;;;9.40;82.40;;;;;;5071883;28;20032;-67
2023/05/16 03:48:20;;;;;;;5.57;1.70;;;9.40;82.50;;;;;;5076658;28;20043;-67
2023/05/16 03:50:46;;;;;;;7.45;1.55;;;9.40;82.50;;;;;;5069243;28;20386;-68
2023/05/16 03:53:12;;;;;;;8.43;2.00;;;9.40;82.40;;;;;;5067841;28;20023;-67
2023/05/16 03:55:37;;;;;;;5.63;1.65;;;9.50;82.40;;;;;;5088064;28;20536;-69
2023/05/16 03:58:03;;;;;;;6.28;1.50;;;9.50;82.40;;;;;;5077035;28;20341;-67
2023/05/16 04:00:29;;;;;;;6.10;1.50;;;9.60;82.30;;;;;;5069454;28;20040;-67
2023/05/16 04:02:54;;;;;;;8.15;2.03;;;9.60;82.10;;;;;;5068638;28;20049;-68
2023/05/16 04:05:20;;;;;;;6.72;1.80;;;9.70;82.10;;;;;;5071614;28;20048;-68
2023/05/16 04:07:45;;;;;;;5.65;2.00;;;9.70;82.00;;;;;;5067610;28;20670;-67
2023/05/16 04:10:11;;;;;;;5.03;1.42;;;9.70;82.10;;;;;;5067455;28;20021;-67
2023/05/16 04:12:37;;;;;;;5.20;1.75;;;9.80;82.20;;;;;;5071045;28;20436;-67
2023/05/16 04:15:04;;;;;;;5.57;1.73;;;9.80;82.00;;;;;;5068325;28;20020;-69
2023/05/16 04:17:30;;;;;;;5.00;1.60;;;9.90;81.90;;;;;;5070054;28;20054;-69
2023/05/16 04:19:55;;;;;;;7.68;1.83;;;9.90;81.80;;;;;;5073079;28;20047;-67
2023/05/16 04:22:21;;;;;;;7.05;1.88;;;9.90;81.80;;;;;;5072762;28;20028;-67
2023/05/16 04:24:48;;;;;;;4.20;1.40;;;10.00;81.70;;;;;;5073524;28;20017;-67
2023/05/16 04:27:13;;;;;;;6.88;1.70;;;10.00;81.50;;;;;;5054984;28;20056;-68
2023/05/16 04:29:39;;;;;;;5.22;1.80;;;10.10;81.30;;;;;;5069402;28;20517;-68
2023/05/16 04:32:06;;;;;;;8.85;2.00;;;10.10;81.30;;;;;;5089096;28;20028;-66
2023/05/16 04:34:32;;;;;;;6.93;1.90;;;10.20;81.30;;;;;;5073669;28;20025;-68
2023/05/16 04:36:58;;;;;;;7.10;1.88;;;10.20;81.20;;;;;;5071887;28;20483;-66
2023/05/16 04:39:24;;;;;;;5.85;1.83;;;10.30;81.20;;;;;;5070657;28;20074;-67
2023/05/16 04:41:50;;;;;;;7.93;1.85;;;10.30;81.20;;;;;;5073731;28;20029;-68
2023/05/16 04:44:16;;;;;;;5.85;1.70;;;10.30;81.00;;;;;;5072448;28;20145;-67
2023/05/16 04:46:41;;;;;;;6.82;1.60;;;10.40;81.00;;;;;;5079179;28;20629;-68
2023/05/16 04:49:07;;;;;;;4.47;1.67;;;10.40;80.80;;;;;;5068553;28;20024;-65
2023/05/16 04:51:33;;;;;;;5.00;1.45;;;10.40;80.80;;;;;;5078607;28;20376;-67
2023/05/16 04:53:59;;;;;;;4.93;1.40;;;10.40;80.80;;;;;;5070779;28;20029;-67
2023/05/16 04:56:28;;;;;;;5.32;1.50;;;10.50;80.80;;;;;;5071724;28;20576;-66
2023/05/16 04:58:53;;;;;;;5.68;1.70;;;10.60;80.80;;;;;;5070565;28;20425;-66
2023/05/16 05:01:19;;;;;;;5.88;1.60;;;10.50;80.60;;;;;;5078777;28;20028;-67
2023/05/16 05:03:44;;;;;;;6.65;1.70;;;10.50;80.50;;;;;;5071726;28;20043;-66
2023/05/16 05:06:10;;;;;;;6.10;1.50;;;10.60;80.60;;;;;;5071526;28;20028;-71
2023/05/16 05:08:36;;;;;;;7.95;1.95;;;10.60;80.60;;;;;;5076241;28;20032;-68
2023/05/16 05:11:01;;;;;;;6.13;1.60;;;10.70;80.70;;;;;;5074953;28;20035;-68
2023/05/16 05:13:27;;;;;;;5.63;1.75;;;10.70;80.60;;;;;;5078486;28;20078;-69
2023/05/16 05:15:52;;;;;;;6.60;2.10;;;10.90;80.50;;;;;;5074448;28;20245;-69
2023/05/16 05:18:18;;;;;;;6.57;1.90;;;11.10;80.00;;;;;;5072146;28;20028;-67
2023/05/16 05:20:44;;;;;;;7.78;1.90;;;11.20;79.40;;;;;;5071572;28;20098;-68
2023/05/16 05:23:09;;;;;;;6.15;1.75;;;11.20;79.10;;;;;;5069908;28;20043;-69
2023/05/16 05:25:35;;;;;;;8.77;2.42;;;11.20;79.70;;;;;;5076379;28;20028;-67
2023/05/16 05:28:01;;;;;;;4.90;1.60;;;11.20;79.10;;;;;;5075951;28;20032;-68
2023/05/16 05:30:27;;;;;;;4.72;1.60;;;11.30;79.20;;;;;;5079135;28;20028;-70
2023/05/16 05:32:53;;;;;;;8.48;2.00;;;11.30;78.90;;;;;;5076661;28;20449;-68
2023/05/16 05:35:19;;;;;;;5.88;1.55;;;11.30;78.60;;;;;;5077593;28;20087;-69
2023/05/16 05:37:45;;;;;;;6.75;1.60;;;11.40;78.50;;;;;;5071938;28;20066;-70
2023/05/16 05:40:10;;;;;;;6.65;1.80;;;11.40;78.50;;;;;;5070963;28;20437;-68
2023/05/16 05:42:36;;;;;;;5.68;1.60;;;11.40;78.30;;;;;;5074751;28;20023;-66
2023/05/16 05:45:02;;;;;;;6.50;1.88;;;11.40;78.30;;;;;;5076621;28;20025;-68
2023/05/16 05:47:27;;;;;;;6.13;1.63;;;11.40;78.10;;;;;;5074649;28;20031;-69
2023/05/16 05:49:53;;;;;;;5.95;1.77;;;11.40;78.20;;;;;;5070048;28;20027;-67
2023/05/16 05:52:18;;;;;;;6.68;1.88;;;11.70;78.00;;;;;;5070175;28;20104;-66
2023/05/16 05:54:44;;;;;;;6.38;1.90;;;11.80;77.10;;;;;;5071411;28;20360;-66
2023/05/16 05:57:10;;;;;;;6.00;1.65;;;11.60;76.90;;;;;;5075268;28;20029;-68
2023/05/16 05:59:35;;;;;;;6.75;1.90;;;11.50;77.10;;;;;;5070572;28;20459;-71
2023/05/16 06:02:01;;;;;;;6.18;1.55;;;11.40;77.40;;;;;;5067730;28;20016;-67
2023/05/16 06:04:26;;;;;;;6.20;1.63;;;11.30;77.50;;;;;;5070849;28;20029;-67
2023/05/16 06:06:52;;;;;;;8.27;1.77;;;11.30;77.70;;;;;;5073939;28;20017;-68
2023/05/16 06:09:17;;;;;;;5.60;1.70;;;11.30;77.80;;;;;;5070657;28;20093;-66
2023/05/16 06:11:44;;;;;;;8.20;1.88;;;11.30;78.00;;;;;;5072802;28;20528;-66
2023/05/16 06:14:10;;;;;;;6.07;1.63;;;11.20;78.10;;;;;;5069081;28;20688;-68
2023/05/16 06:16:36;;;;;;;7.38;1.80;;;11.30;78.10;;;;;;5072304;28;20115;-66
2023/05/16 06:19:01;;;;;;;9.18;2.05;;;11.50;78.00;;;;;;5069393;28;20016;-67
2023/05/16 06:21:27;;;;;;;6.70;1.80;;;12.70;76.40;;;;;;5083857;28;20107;-68
2023/05/16 06:23:52;;;;;;;5.90;1.98;;;13.30;73.70;;;;;;5079908;28;20043;-68
2023/05/16 06:26:18;;;;;;;6.30;1.95;;;13.60;71.80;;;;;;5073841;28;20025;-66
2023/05/16 06:28:44;;;;;;;8.25;2.08;;;13.30;71.70;;;;;;5076119;28;20036;-66
2023/05/16 06:31:09;;;;;;;5.95;1.83;;;12.90;72.30;;;;;;5083017;28;20701;-68
2023/05/16 06:33:35;;;;;;;7.47;2.30;;;12.50;73.20;;;;;;5077009;28;20035;-72
2023/05/16 06:36:00;;;;;;;7.28;2.08;;;12.20;74.00;;;;;;5089204;28;20020;-68
2023/05/16 06:38:27;;;;;;;6.80;2.00;;;12.20;74.60;;;;;;5069807;28;20123;-70
2023/05/16 06:40:52;;;;;;;8.40;1.80;;;12.10;74.90;;;;;;5074329;28;20906;-66
2023/05/16 06:43:18;;;;;;;7.45;1.90;;;12.20;75.10;;;;;;5067931;28;20097;-68
2023/05/16 06:45:45;;;;;;;8.75;2.40;;;12.30;75.00;;;;;;5069313;28;20048;-68
2023/05/16 06:48:12;;;;;;;7.07;1.85;;;12.50;74.70;;;;;;5078304;28;20024;-67
2023/05/16 06:50:37;;;;;;;6.22;2.10;;;12.40;74.40;;;;;;5077462;28;20476;-69
2023/05/16 06:53:04;;;;;;;5.35;1.75;;;12.70;74.70;;;;;;5070963;28;20036;-67
2023/05/16 06:55:30;;;;;;;4.18;1.75;;;13.00;74.40;;;;;;5072922;28;20500;-70
2023/05/16 06:57:56;;;;;;;6.45;2.28;;;13.20;73.90;;;;;;5072947;28;20028;-70
2023/05/16 07:00:21;;;;;;;5.07;1.70;;;13.50;73.20;;;;;;5067877;28;20674;-67
2023/05/16 07:02:47;;;;;;;7.07;1.80;;;13.70;72.90;;;;;;5076126;28;20035;-67
2023/05/16 07:05:12;;;;;;;4.80;1.60;;;14.00;72.20;;;;;;5069087;28;20020;-68
2023/05/16 07:07:38;;;;;;;4.60;1.67;;;14.30;71.50;;;;;;5076225;28;20033;-68
2023/05/16 07:10:04;;;;;;;7.05;2.03;;;14.60;69.70;;;;;;5077754;28;20024;-69
2023/05/16 07:12:30;;;;;;;4.57;1.50;;;14.60;69.10;;;;;;5073128;28;20101;-70
2023/05/16 07:14:55;;;;;;;9.50;1.90;;;14.70;68.50;;;;;;5070470;28;20077;-69
2023/05/16 07:17:21;;;;;;;6.10;1.60;;;14.70;68.00;;;;;;5070106;28;20025;-69
2023/05/16 07:19:46;;;;;;;4.20;1.50;;;15.00;68.20;;;;;;5089171;28;20036;-69
2023/05/16 07:22:12;;;;;;;5.18;1.40;;;15.20;67.80;;;;;;5075523;28;20019;-69
2023/05/16 07:24:37;;;;;;;5.88;1.48;;;15.40;66.80;;;;;;5069953;28;20380;-69
2023/05/16 07:27:03;;;;;;;5.35;1.45;;;15.30;64.70;;;;;;5070696;28;20032;-69
2023/05/16 07:29:29;;;;;;;5.38;1.35;;;15.20;63.80;;;;;;5078738;28;20097;-69
2023/05/16 07:31:55;;;;;;;3.53;1.27;;;14.90;62.40;;;;;;5078811;28;20503;-68
2023/05/16 07:34:20;;;;;;;4.50;1.23;;;14.70;62.70;;;;;;5078115;28;20546;-68
2023/05/16 07:36:46;;;;;;;3.42;1.23;;;14.60;63.20;;;;;;5075888;28;20402;-69
2023/05/16 07:39:11;;;;;;;2.72;1.00;;;14.80;63.60;;;;;;5071513;28;20020;-69
2023/05/16 07:41:37;;;;;;;4.18;1.25;;;15.00;63.50;;;;;;5073171;28;20161;-69
2023/05/16 07:44:03;;;;;;;3.92;1.20;;;15.10;62.40;;;;;;5075025;28;20079;-69
2023/05/16 07:46:28;;;;;;;3.40;1.20;;;14.90;61.70;;;;;;5070137;28;20028;-69
2023/05/16 07:48:54;;;;;;;5.63;1.33;;;14.80;61.90;;;;;;5068555;28;20070;-69
2023/05/16 07:51:19;;;;;;;2.03;0.95;;;14.80;61.90;;;;;;5067408;28;20487;-69
2023/05/16 07:53:45;;;;;;;3.47;1.17;;;14.70;62.20;;;;;;5077804;28;20024;-70
2023/05/16 07:56:11;;;;;;;3.50;1.10;;;14.60;62.00;;;;;;5090143;28;20089;-70
2023/05/16 07:58:37;;;;;;;4.63;1.20;;;14.50;62.10;;;;;;5091546;28;20028;-69
2023/05/16 08:01:03;;;;;;;4.65;1.50;;;14.30;62.10;;;;;;5074565;28;20486;-68
2023/05/16 08:03:29;;;;;;;3.95;1.42;;;14.10;61.80;;;;;;5075015;28;20098;-68
2023/05/16 08:05:54;;;;;;;3.75;1.20;;;14.00;62.10;;;;;;5074654;28;20032;-68
2023/05/16 08:08:20;;;;;;;2.88;1.30;;;13.90;62.30;;;;;;5068032;28;20675;-69
2023/05/16 08:10:46;;;;;;;4.60;1.00;;;14.10;62.30;;;;;;5075905;28;20028;-68
2023/05/16 08:13:11;;;;;;;4.45;1.13;;;14.20;61.80;;;;;;5074119;28;20090;-68
2023/05/16 08:15:37;;;;;;;3.70;1.27;;;14.40;60.80;;;;;;5091780;28;20065;-70
2023/05/16 08:18:02;;;;;;;3.58;1.08;;;14.50;60.10;;;;;;5081524;28;20041;-68
2023/05/16 08:20:28;;;;;;;2.05;1.05;;;14.80;60.10;;;;;;5071383;28;20165;-68
2023/05/16 08:22:54;;;;;;;4.45;1.60;;;14.80;59.70;;;;;;5073643;28;20029;-69
2023/05/16 08:25:20;;;;;;;2.80;1.17;;;14.80;59.10;;;;;;5088099;28;20021;-70
2023/05/16 08:27:47;;;;;;;3.70;1.20;;;14.60;59.60;;;;;;5067002;28;20040;-69
2023/05/16 08:30:13;;;;;;;4.57;1.27;;;14.50;60.40;;;;;;5075411;28;20020;-69
2023/05/16 08:32:38;;;;;;;6.28;1.20;;;14.50;60.70;;;;;;5079998;28;20029;-69
2023/05/16 08:35:05;;;;;;;3.55;1.00;;;14.40;61.00;;;;;;5073692;28;20071;-69
2023/05/16 08:37:30;;;;;;;2.95;0.90;;;14.30;60.90;;;;;;5078633;28;20506;-68
2023/05/16 08:39:57;;;;;;;3.70;1.05;;;14.50;61.00;;;;;;5093448;28;20228;-69
2023/05/16 08:42:22;;;;;;;4.00;1.10;;;14.80;60.80;;;;;;5091537;28;20151;-70
2023/05/16 08:44:48;;;;;;;3.22;1.10;;;14.90;60.10;;;;;;5071276;28;20095;-70
2023/05/16 08:47:18;;;;;;;3.13;0.93;;;15.00;60.00;;;;;;5076152;28;20129;-69
2023/05/16 08:49:47;;;;;;;3.38;1.30;;;15.10;59.90;;;;;;5077712;28;20036;-68
2023/05/16 08:52:13;;;;;;;3.08;0.90;;;15.00;59.90;;;;;;5082365;28;20421;-68
2023/05/16 08:54:39;;;;;;;3.75;1.00;;;14.90;60.10;;;;;;5073545;28;20033;-68
2023/05/16 08:57:07;;;;;;;2.83;1.08;;;14.80;60.50;;;;;;5074010;28;20024;-68
2023/05/16 08:59:34;;;;;;;1.65;0.68;;;14.80;60.00;;;;;;5078765;28;20044;-68
2023/05/16 09:01:59;;;;;;;2.35;0.90;;;14.90;59.90;;;;;;5074079;28;20020;-68
2023/05/16 09:04:26;;;;;;;2.45;0.70;;;15.10;59.60;;;;;;5071717;28;20031;-69
2023/05/16 09:06:52;;;;;;;3.30;1.20;;;15.20;59.10;;;;;;5078753;28;20023;-69
2023/05/16 09:09:18;;;;;;;1.98;0.82;;;15.40;58.30;;;;;;5072837;28;20520;-69
2023/05/16 09:11:44;;;;;;;2.97;1.00;;;15.70;57.60;;;;;;5076959;28;20462;-68
2023/05/16 09:14:10;;;;;;;3.85;0.90;;;15.80;56.10;;;;;;5075619;28;20046;-68
2023/05/16 09:16:35;;;;;;;1.70;0.70;;;15.90;55.90;;;;;;5086266;28;20077;-69
2023/05/16 09:19:01;;;;;;;2.05;0.80;;;16.00;55.90;;;;;;5079070;28;20029;-69
2023/05/16 09:21:28;;;;;;;3.33;0.90;;;15.90;56.20;;;;;;5070549;28;20479;-68
2023/05/16 09:23:54;;;;;;;4.35;1.15;;;15.80;56.40;;;;;;5074175;28;20025;-68
2023/05/16 09:26:21;;;;;;;1.90;0.85;;;15.60;56.60;;;;;;5092700;28;20085;-69
2023/05/16 09:28:47;;;;;;;1.45;0.70;;;15.40;56.10;;;;;;5080949;28;20044;-68
2023/05/16 09:31:26;;;;;;;3.28;0.80;;;15.10;55.60;;;;;;5071621;28;20043;-68
2023/05/16 09:33:55;;;;;;;4.07;1.10;;;14.90;55.50;;;;;;5074428;28;20029;-69
2023/05/16 09:36:20;;;;;;;3.03;0.90;;;14.90;56.40;;;;;;5072350;28;20099;-68
2023/05/16 09:38:46;;;;;;;2.70;0.93;;;14.90;57.00;;;;;;5080727;28;20091;-69
2023/05/16 09:41:12;;;;;;;2.35;0.85;;;15.00;57.50;;;;;;5079076;28;20016;-68
2023/05/16 09:43:39;;;;;;;3.45;1.05;;;15.20;57.90;;;;;;5084013;28;20060;-68
2023/05/16 09:46:05;;;;;;;3.13;1.15;;;15.40;57.80;;;;;;5077175;28;20032;-69
2023/05/16 09:48:34;;;;;;;2.22;0.77;;;15.60;57.70;;;;;;5060218;28;20517;-69
2023/05/16 09:51:03;;;;;;;3.88;0.95;;;15.80;57.30;;;;;;5063008;28;20082;-70
2023/05/16 09:53:31;;;;;;;3.17;0.90;;;16.10;57.30;;;;;;5066788;28;20017;-69
2023/05/16 09:56:04;;;;;;;2.35;0.80;;;16.30;56.70;;;;;;5066455;28;20108;-68
2023/05/16 09:58:31;;;;;;;2.88;0.80;;;16.30;55.90;;;;;;5063488;28;20091;-68
2023/05/16 10:00:58;;;;;;;3.90;0.90;;;16.40;55.70;;;;;;5078509;28;20051;-69
2023/05/16 10:03:25;;;;;;;5.22;1.10;;;16.20;54.80;;;;;;5080663;28;20107;-68
2023/05/16 10:05:52;;;;;;;5.50;1.50;;;16.00;54.80;;;;;;5058044;28;20123;-69
2023/05/16 10:08:22;;;;;;;3.83;1.20;;;15.90;55.00;;;;;;5067987;28;20032;-69
2023/05/16 10:10:54;;;;;;;3.65;1.00;;;15.70;54.70;;;;;;5073161;28;20028;-68
2023/05/16 10:13:27;;;;;;;3.75;1.17;;;15.70;55.20;;;;;;5082465;28;20035;-68
2023/05/16 10:15:56;;;;;;;4.50;1.17;;;15.90;55.40;;;;;;5065383;28;20027;-68
2023/05/16 10:18:27;;;;;;;3.22;1.00;;;15.90;55.30;;;;;;5072677;28;20024;-69
2023/05/16 10:20:55;;;;;;;4.35;1.20;;;15.90;55.30;;;;;;5071278;28;20104;-69
2023/05/16 10:23:21;;;;;;;2.42;0.90;;;15.80;55.40;;;;;;5066393;28;20100;-69
2023/05/16 10:25:48;;;;;;;2.20;0.77;;;15.70;55.90;;;;;;5067437;28;20475;-69
2023/05/16 10:28:15;;;;;;;3.53;1.00;;;15.80;55.60;;;;;;5073792;28;20115;-69
2023/05/16 10:30:43;;;;;;;3.88;0.95;;;15.90;55.30;;;;;;5073802;28;20051;-69
2023/05/16 10:33:17;;;;;;;3.08;1.20;;;16.20;54.80;;;;;;5072390;28;20016;-69
2023/05/16 10:35:44;;;;;;;3.03;1.38;;;16.20;53.90;;;;;;5068386;28;20020;-69
2023/05/16 10:38:11;;;;;;;4.18;1.38;;;16.10;53.60;;;;;;5067439;28;20020;-70
2023/05/16 10:40:38;;;;;;;3.65;1.20;;;16.00;53.30;;;;;;5081763;28;20016;-69
2023/05/16 10:43:06;;;;;;;3.63;1.10;;;16.10;53.40;;;;;;5073204;28;20112;-72
2023/05/16 10:45:31;;;;;;;2.20;1.05;;;16.20;52.70;;;;;;5070653;28;20066;-69
2023/05/16 10:47:59;;;;;;;3.53;1.20;;;16.40;52.10;;;;;;5074477;28;20021;-69
2023/05/16 10:50:40;;;;;;;5.13;1.10;;;16.50;51.00;;;;;;5082218;28;20031;-69
2023/05/16 10:53:19;;;;;;;3.15;1.05;;;16.80;51.00;;;;;;5070882;28;20360;-69
2023/05/16 10:56:00;;;;;;;4.95;2.90;;;16.80;49.80;;;;;;5074250;28;20017;-69
2023/05/16 10:58:38;;;;;;;4.30;1.33;;;16.60;49.40;;;;;;5078259;28;20040;-68
2023/05/16 11:01:30;;;;;;;2.70;1.15;;;16.50;50.60;;;;;;5083698;28;20020;-70
2023/05/16 11:03:59;;;;;;;3.72;1.05;;;16.40;51.40;;;;;;5077672;28;20530;-70
2023/05/16 11:06:26;;;;;;;2.72;1.30;;;16.50;51.80;;;;;;5076707;28;20104;-69
2023/05/16 11:09:08;;;;;;;4.65;1.00;;;16.70;52.00;;;;;;5078812;28;20111;-69
2023/05/16 11:11:47;;;;;;;3.33;0.98;;;16.80;51.00;;;;;;5073228;28;20039;-69
2023/05/16 11:14:33;;;;;;;2.85;1.10;;;16.90;50.40;;;;;;5068221;28;20075;-69
2023/05/16 11:16:59;;;;;;;1.80;0.85;;;17.10;47.40;;;;;;5069645;28;20017;-69
2023/05/16 11:19:38;;;;;;;2.80;1.10;;;17.20;47.20;;;;;;5078695;28;20038;-69
2023/05/16 11:22:14;;;;;;;1.70;0.70;;;17.20;45.50;;;;;;5078456;28;20028;-69
2023/05/16 11:24:47;;;;;;;3.67;1.00;;;17.30;45.60;;;;;;5075293;28;20020;-69
2023/05/16 11:27:19;;;;;;;3.13;1.30;;;17.50;45.90;;;;;;5070678;28;20123;-69
2023/05/16 11:29:45;;;;;;;2.80;1.30;;;17.50;46.40;;;;;;5069970;28;20028;-69
2023/05/16 11:32:11;;;;;;;3.67;1.20;;;17.80;46.60;;;;;;5070940;28;20097;-69
2023/05/16 11:34:38;;;;;;;4.47;0.98;;;17.90;46.40;;;;;;5073885;28;20028;-69
2023/05/16 11:37:04;;;;;;;3.28;1.00;;;17.80;45.90;;;;;;5078364;28;20449;-69
2023/05/16 11:39:31;;;;;;;3.33;1.00;;;17.60;46.40;;;;;;5068131;28;20048;-69
2023/05/16 11:41:56;;;;;;;2.20;0.82;;;17.50;46.90;;;;;;5066390;28;20265;-69
2023/05/16 11:44:22;;;;;;;3.10;1.20;;;17.40;47.30;;;;;;5082204;28;20020;-69
2023/05/16 11:46:48;;;;;;;2.03;0.90;;;17.30;47.30;;;;;;5072875;28;20024;-69
2023/05/16 11:49:13;;;;;;;5.05;1.40;;;17.20;47.20;;;;;;5077617;28;20098;-69
2023/05/16 11:51:42;;;;;;;5.80;1.23;;;17.00;46.90;;;;;;5076275;28;20028;-69
2023/05/16 11:54:09;;;;;;;4.25;1.30;;;17.00;47.30;;;;;;5070675;28;20074;-69
2023/05/16 11:56:35;;;;;;;2.05;1.10;;;17.00;47.30;;;;;;5077522;28;20367;-69
2023/05/16 11:59:01;;;;;;;2.78;1.13;;;17.20;47.70;;;;;;5085763;28;20030;-69
2023/05/16 12:01:38;;;;;;;3.25;1.10;;;17.30;47.50;;;;;;5078037;28;20078;-69
2023/05/16 12:04:08;;;;;;;3.50;1.15;;;17.40;47.60;;;;;;5064663;28;20111;-69
2023/05/16 12:06:34;;;;;;;2.15;0.90;;;17.40;47.10;;;;;;5078770;28;20020;-70
2023/05/16 12:09:02;;;;;;;4.50;1.20;;;17.30;47.40;;;;;;5069940;28;20113;-70
2023/05/16 12:11:29;;;;;;;3.17;1.30;;;17.30;47.40;;;;;;5075559;28;20032;-70
2023/05/16 12:13:55;;;;;;;4.18;1.20;;;17.30;47.80;;;;;;5077211;28;20028;-69
2023/05/16 12:16:21;;;;;;;4.28;1.27;;;17.20;47.10;;;;;;5078840;28;20025;-70
2023/05/16 12:18:48;;;;;;;3.85;1.20;;;17.00;47.20;;;;;;5076030;28;20096;-70
2023/05/16 12:21:15;;;;;;;3.92;1.20;;;17.00;47.70;;;;;;5066417;28;20119;-70
2023/05/16 12:23:41;;;;;;;3.33;1.20;;;17.20;47.80;;;;;;5076019;28;20293;-70
2023/05/16 12:26:07;;;;;;;4.07;1.50;;;17.40;47.70;;;;;;5068354;28;20364;-70
2023/05/16 12:28:34;;;;;;;2.45;1.10;;;17.50;47.00;;;;;;5072322;28;20023;-70
2023/05/16 12:30:59;;;;;;;3.05;1.13;;;17.50;47.10;;;;;;5073271;28;20632;-69
2023/05/16 12:33:26;;;;;;;4.40;1.50;;;17.40;46.90;;;;;;5078478;28;20025;-70
2023/05/16 12:35:53;;;;;;;3.47;1.35;;;17.20;47.20;;;;;;5077589;28;20036;-70
2023/05/16 12:38:19;;;;;;;3.90;1.25;;;17.20;47.50;;;;;;5074806;28;20115;-70
2023/05/16 12:40:46;;;;;;;3.10;1.10;;;17.10;47.30;;;;;;5080701;28;20016;-70
2023/05/16 12:43:18;;;;;;;3.35;1.10;;;17.20;47.70;;;;;;5067811;28;20032;-69
2023/05/16 12:45:55;;;;;;;2.30;0.93;;;17.10;47.70;;;;;;5074036;28;20119;-70
2023/05/16 12:48:22;;;;;;;3.45;1.30;;;17.00;48.00;;;;;;5077395;28;20501;-70